Gazpromneft East — UBOF4 — position and weather

sailwx.info

Track history (hours):
 
Tides and Currents Weather Stations Pressure Air Temp Water Temp Dewpoint Dewpoint Depression Visibility Wind Speed Wind Dir Waves Ship Positions

Gazpromneft East

Last reported at 2016-May-24 21:33 UTC. Time now 2016-May-24 21:37 UTC.
Position N 59°56' E 029°46'.

Length 79 m; draft 5.1 m.

Type: Tanker. MMSI: 273335320.

Date/timePositionNaut miles runAvg speedWind from/ knotsBaromVisibWave heightAir tempDewpointWater temp
2016-May-24 21:33N 59°56' E 029°46'0 0.0
2016-May-24 20:33N 59°56' E 029°46'0 0.1
2016-May-24 19:33N 59°56' E 029°46'3 2.9
2016-May-24 18:32N 59°57' E 029°52'0 0.0
2016-May-24 17:32N 59°57' E 029°52'0 0.0
2016-May-24 16:32N 59°57' E 029°52'0 0.0
2016-May-24 15:33N 59°57' E 029°52'9 9.1
2016-May-24 14:33N 59°57' E 030°10'1 0.7
2016-May-24 13:33N 59°57' E 030°11'0 0.0
2016-May-24 12:33N 59°57' E 030°11'0 0.0
2016-May-24 11:34N 59°57' E 030°11'0 0.0
2016-May-24 10:33N 59°57' E 030°11'0 0.0
2016-May-24 09:33N 59°57' E 030°11'0 0.0
2016-May-24 08:33N 59°57' E 030°11'0 0.0
2016-May-24 07:33N 59°57' E 030°11'0 0.0
2016-May-24 06:33N 59°57' E 030°11'7 6.7
2016-May-24 05:33N 59°56' E 029°58'6 5.7
2016-May-24 04:33N 59°56' E 029°46'0 0.0
2016-May-24 03:33N 59°56' E 029°46'0 0.0
2016-May-24 02:33N 59°56' E 029°46'0 0.0
2016-May-24 01:33N 59°56' E 029°46'0 0.0
2016-May-24 00:33N 59°56' E 029°46'0 0.0
2016-May-23 23:33N 59°56' E 029°46'0 0.0
2016-May-23 22:33N 59°56' E 029°46'0 0.0
2016-May-23 21:33N 59°56' E 029°46'0 0.0
2016-May-23 20:33N 59°56' E 029°46'0 0.0
2016-May-23 19:33N 59°56' E 029°46'0 0.0
2016-May-23 18:30N 59°56' E 029°46'0 0.0
2016-May-23 17:32N 59°56' E 029°46'0 0.0
2016-May-23 16:32N 59°56' E 029°46'0 0.0
2016-May-23 15:32N 59°56' E 029°46'0 0.0
2016-May-23 14:29N 59°56' E 029°46'0 0.0
2016-May-23 13:32N 59°56' E 029°46'0 0.0
2016-May-23 12:32N 59°56' E 029°46'0 0.0
2016-May-23 11:32N 59°56' E 029°46'0 0.0
2016-May-23 10:32N 59°56' E 029°46'0 0.0
2016-May-23 09:32N 59°56' E 029°46'0 0.0
2016-May-23 08:32N 59°56' E 029°46'0 0.0
2016-May-23 07:32N 59°56' E 029°46'0 0.0
2016-May-23 06:32N 59°56' E 029°46'0 0.0
2016-May-23 05:32N 59°56' E 029°46'0 0.0
2016-May-23 04:33N 59°56' E 029°46'0 0.0
2016-May-23 03:33N 59°56' E 029°46'0 0.0
2016-May-23 02:33N 59°56' E 029°46'0 0.0
2016-May-23 01:34N 59°56' E 029°46'0 0.0
2016-May-23 00:33N 59°56' E 029°46'0 0.0
2016-May-22 23:34N 59°56' E 029°46'0 0.0
2016-May-22 22:34N 59°56' E 029°46'0 0.0
2016-May-22 21:32N 59°56' E 029°46'0 0.0
2016-May-22 20:33N 59°56' E 029°46'0 0.0
2016-May-22 19:33N 59°56' E 029°46'0 0.0
2016-May-22 18:33N 59°56' E 029°46'0 0.0
2016-May-22 17:33N 59°56' E 029°46'0 0.0
2016-May-22 16:34N 59°56' E 029°46'0 0.0
2016-May-22 15:33N 59°56' E 029°46'0 0.0
2016-May-22 14:33N 59°56' E 029°46'3 3.3
2016-May-22 13:33N 59°59' E 029°46'19 3.7
2016-May-22 08:30N 60°01' E 029°08'1111.2
2016-May-22 07:33N 59°57' E 028°49'1110.7
2016-May-22 06:33N 59°52' E 028°30'1010.3
2016-May-22 05:33N 59°42' E 028°22'1 0.7
2016-May-22 04:27N 59°42' E 028°21'0 0.0
2016-May-22 03:24N 59°42' E 028°21'0 0.0
2016-May-22 02:30N 59°42' E 028°21'0 0.0
2016-May-22 01:30N 59°42' E 028°21'0 0.0
2016-May-22 00:30N 59°42' E 028°21'0 0.0
2016-May-21 23:30N 59°42' E 028°21'0 0.0
2016-May-21 22:33N 59°42' E 028°21'0 0.0
2016-May-21 21:33N 59°42' E 028°21'0 0.0
2016-May-21 20:33N 59°42' E 028°21'0 0.0
2016-May-21 19:21N 59°42' E 028°21'0 0.0
2016-May-21 18:33N 59°42' E 028°21'0 0.0
2016-May-21 17:33N 59°42' E 028°21'0 0.0
2016-May-21 16:24N 59°42' E 028°21'2 2.2
2016-May-21 15:33N 59°43' E 028°23'1110.6
2016-May-21 14:33N 59°53' E 028°30'4 3.4
2016-May-21 13:31N 59°54' E 028°36'0 0.1
2016-May-21 12:31N 59°54' E 028°36'7 7.7
2016-May-21 11:33N 59°57' E 028°50'2410.9
2016-May-21 09:23N 60°00' E 029°37'7 7.8
2016-May-21 08:32N 59°56' E 029°46'0 0.0
2016-May-21 07:33N 59°56' E 029°46'0 0.0
2016-May-21 06:32N 59°56' E 029°46'0 0.0
2016-May-21 05:27N 59°56' E 029°46'0 0.0
2016-May-21 02:31N 59°56' E 029°46'0 0.0
2016-May-21 01:33N 59°56' E 029°46'0 0.0
2016-May-21 00:33N 59°56' E 029°46'0 0.0
2016-May-20 23:33N 59°56' E 029°46'0 0.0
2016-May-20 22:32N 59°56' E 029°46'0 0.0
2016-May-20 21:33N 59°56' E 029°46'0 0.0
2016-May-20 20:33N 59°56' E 029°46'7 6.9
2016-May-20 19:33N 59°55' E 030°00'7 7.1
2016-May-20 18:33N 59°53' E 030°14'0 0.0
2016-May-20 17:33N 59°53' E 030°14'0 0.0
2016-May-20 16:33N 59°53' E 030°14'0 0.1
2016-May-20 15:33N 59°53' E 030°13'0 0.0
2016-May-20 14:33N 59°53' E 030°13'0 0.0
2016-May-20 13:33N 59°53' E 030°13'1 0.9
2016-May-20 12:33N 59°52' E 030°12'0 0.0
2016-May-20 11:33N 59°52' E 030°12'0 0.0
2016-May-20 10:33N 59°52' E 030°12'0 0.0
2016-May-20 09:32N 59°52' E 030°12'0 0.0
2016-May-20 08:33N 59°52' E 030°12'0 0.0
2016-May-20 07:33N 59°52' E 030°12'1 1.0
2016-May-20 06:33N 59°53' E 030°13'0 0.3
2016-May-20 05:33N 59°53' E 030°13'0 0.0
2016-May-20 04:33N 59°53' E 030°13'0 0.0
2016-May-20 03:33N 59°53' E 030°13'0 0.0
2016-May-20 02:33N 59°53' E 030°13'0 0.0
2016-May-20 01:32N 59°53' E 030°13'0 0.0
2016-May-20 00:33N 59°53' E 030°13'0 0.0
2016-May-19 23:33N 59°53' E 030°13'0 0.0
2016-May-19 22:33N 59°53' E 030°13'0 0.0
2016-May-19 21:33N 59°53' E 030°13'0 0.0
2016-May-19 20:33N 59°53' E 030°13'0 0.0
2016-May-19 19:33N 59°53' E 030°13'0 0.0
2016-May-19 18:33N 59°53' E 030°13'0 0.0
2016-May-19 17:33N 59°53' E 030°13'0 0.0
2016-May-19 16:33N 59°53' E 030°13'0 0.0
2016-May-19 15:33N 59°53' E 030°13'0 0.0
2016-May-19 14:33N 59°53' E 030°13'0 0.0
2016-May-19 13:33N 59°53' E 030°13'0 0.1
2016-May-19 12:33N 59°53' E 030°14'0 0.0
2016-May-19 11:32N 59°53' E 030°14'0 0.0
2016-May-19 10:33N 59°53' E 030°14'0 0.0
2016-May-19 09:33N 59°53' E 030°14'0 0.0
2016-May-19 08:33N 59°53' E 030°14'0 0.1
2016-May-19 07:33N 59°53' E 030°13'0 0.0
2016-May-19 06:33N 59°53' E 030°13'0 0.0
2016-May-19 05:33N 59°53' E 030°13'0 0.0
2016-May-19 04:33N 59°53' E 030°13'0 0.0
2016-May-19 03:33N 59°53' E 030°13'7 6.8
2016-May-19 02:33N 59°55' E 030°01'1110.9
2016-May-19 01:32N 59°60' E 029°40'9 2.8
2016-May-18 22:22N 60°01' E 029°23'0 0.0
2016-May-18 21:28N 60°01' E 029°23'11 8.6
2016-May-18 20:12N 60°09' E 029°07'1011.7
2016-May-18 19:18N 60°15' E 028°50'6 5.8
2016-May-18 18:20N 60°19' E 028°44'0 0.0
2016-May-18 10:24N 60°19' E 028°44'0 0.0
2016-May-18 09:12N 60°19' E 028°44'0 0.0
2016-May-18 08:30N 60°19' E 028°44'0 0.0
2016-May-18 07:30N 60°19' E 028°44'0 0.0
2016-May-18 06:30N 60°19' E 028°44'0 0.0
2016-May-18 04:18N 60°19' E 028°44'0 0.0
2016-May-18 03:30N 60°19' E 028°44'0 0.0
2016-May-18 02:33N 60°19' E 028°44'1 0.3
2016-May-17 23:15N 60°18' E 028°45'0 0.0
2016-May-17 22:03N 60°18' E 028°45'0 0.0
2016-May-17 21:33N 60°18' E 028°45'0 0.0
2016-May-17 10:20N 60°18' E 028°45'0 0.0
2016-May-17 07:18N 60°18' E 028°45'2 2.3
2016-May-17 06:29N 60°20' E 028°43'0 0.0
2016-May-17 04:26N 60°20' E 028°43'0 0.0
2016-May-17 03:29N 60°20' E 028°43'0 0.0
2016-May-17 02:29N 60°20' E 028°43'0 0.0
2016-May-17 01:32N 60°20' E 028°43'0 0.0
2016-May-17 00:32N 60°20' E 028°43'0 0.0
2016-May-16 23:32N 60°20' E 028°43'0 0.0
2016-May-16 21:32N 60°20' E 028°43'2 0.1
2016-May-16 04:26N 60°18' E 028°45'0 0.0
2016-May-16 02:14N 60°18' E 028°45'0 0.0
2016-May-16 01:20N 60°18' E 028°45'28 4.6
2016-May-15 19:07N 60°01' E 029°30'611.4
2016-May-15 18:33N 59°59' E 029°43'1111.3
2016-May-15 17:33N 59°55' E 030°03'5 5.3
2016-May-15 16:32N 59°53' E 030°14'0 0.0
2016-May-15 15:33N 59°53' E 030°14'0 0.0
2016-May-15 14:33N 59°53' E 030°14'0 0.0
2016-May-15 13:34N 59°53' E 030°14'0 0.0
2016-May-15 12:34N 59°53' E 030°14'0 0.0
2016-May-15 11:33N 59°53' E 030°14'0 0.0
2016-May-15 10:33N 59°53' E 030°14'0 0.0
2016-May-15 09:34N 59°53' E 030°14'0 0.0
2016-May-15 08:33N 59°53' E 030°14'0 0.0
2016-May-15 07:33N 59°53' E 030°14'3 3.4
2016-May-15 06:32N 59°54' E 030°07'1110.8
2016-May-15 05:33N 59°58' E 029°47'2 2.1
2016-May-15 04:31N 59°56' E 029°46'0 0.0
2016-May-15 03:32N 59°56' E 029°46'0 0.0
2016-May-15 02:32N 59°56' E 029°46'0 0.0
2016-May-15 01:33N 59°56' E 029°46'0 0.0
2016-May-15 00:33N 59°56' E 029°46'0 0.0
2016-May-14 23:32N 59°56' E 029°46'0 0.0
2016-May-14 22:32N 59°56' E 029°46'  
Track history (hours):
 
Tides and Currents Weather Stations Pressure Air Temp Water Temp Dewpoint Dewpoint Depression Visibility Wind Speed Wind Dir Waves Ship Positions

Gazpromneft East

Last reported at 2016-May-24 21:33 UTC. Time now 2016-May-24 21:37 UTC.
Position N 59°56' E 029°46'.

Length 79 m; draft 5.1 m.

Type: Tanker. MMSI: 273335320.

Date/timePositionNaut miles runAvg speedWind from/ knotsBaromVisibWave heightAir tempDewpointWater temp
2016-May-24 21:33N 59°56' E 029°46'0 0.0
2016-May-24 20:33N 59°56' E 029°46'0 0.1
2016-May-24 19:33N 59°56' E 029°46'3 2.9
2016-May-24 18:32N 59°57' E 029°52'0 0.0
2016-May-24 17:32N 59°57' E 029°52'0 0.0
2016-May-24 16:32N 59°57' E 029°52'0 0.0
2016-May-24 15:33N 59°57' E 029°52'9 9.1
2016-May-24 14:33N 59°57' E 030°10'1 0.7
2016-May-24 13:33N 59°57' E 030°11'0 0.0
2016-May-24 12:33N 59°57' E 030°11'0 0.0
2016-May-24 11:34N 59°57' E 030°11'0 0.0
2016-May-24 10:33N 59°57' E 030°11'0 0.0
2016-May-24 09:33N 59°57' E 030°11'0 0.0
2016-May-24 08:33N 59°57' E 030°11'0 0.0
2016-May-24 07:33N 59°57' E 030°11'0 0.0
2016-May-24 06:33N 59°57' E 030°11'7 6.7
2016-May-24 05:33N 59°56' E 029°58'6 5.7
2016-May-24 04:33N 59°56' E 029°46'0 0.0
2016-May-24 03:33N 59°56' E 029°46'0 0.0
2016-May-24 02:33N 59°56' E 029°46'0 0.0
2016-May-24 01:33N 59°56' E 029°46'0 0.0
2016-May-24 00:33N 59°56' E 029°46'0 0.0
2016-May-23 23:33N 59°56' E 029°46'0 0.0
2016-May-23 22:33N 59°56' E 029°46'0 0.0
2016-May-23 21:33N 59°56' E 029°46'0 0.0
2016-May-23 20:33N 59°56' E 029°46'0 0.0
2016-May-23 19:33N 59°56' E 029°46'0 0.0
2016-May-23 18:30N 59°56' E 029°46'0 0.0
2016-May-23 17:32N 59°56' E 029°46'0 0.0
2016-May-23 16:32N 59°56' E 029°46'0 0.0
2016-May-23 15:32N 59°56' E 029°46'0 0.0
2016-May-23 14:29N 59°56' E 029°46'0 0.0
2016-May-23 13:32N 59°56' E 029°46'0 0.0
2016-May-23 12:32N 59°56' E 029°46'0 0.0
2016-May-23 11:32N 59°56' E 029°46'0 0.0
2016-May-23 10:32N 59°56' E 029°46'0 0.0
2016-May-23 09:32N 59°56' E 029°46'0 0.0
2016-May-23 08:32N 59°56' E 029°46'0 0.0
2016-May-23 07:32N 59°56' E 029°46'0 0.0
2016-May-23 06:32N 59°56' E 029°46'0 0.0
2016-May-23 05:32N 59°56' E 029°46'0 0.0
2016-May-23 04:33N 59°56' E 029°46'0 0.0
2016-May-23 03:33N 59°56' E 029°46'0 0.0
2016-May-23 02:33N 59°56' E 029°46'0 0.0
2016-May-23 01:34N 59°56' E 029°46'0 0.0
2016-May-23 00:33N 59°56' E 029°46'0 0.0
2016-May-22 23:34N 59°56' E 029°46'0 0.0
2016-May-22 22:34N 59°56' E 029°46'0 0.0
2016-May-22 21:32N 59°56' E 029°46'0 0.0
2016-May-22 20:33N 59°56' E 029°46'0 0.0
2016-May-22 19:33N 59°56' E 029°46'0 0.0
2016-May-22 18:33N 59°56' E 029°46'0 0.0
2016-May-22 17:33N 59°56' E 029°46'0 0.0
2016-May-22 16:34N 59°56' E 029°46'0 0.0
2016-May-22 15:33N 59°56' E 029°46'0 0.0
2016-May-22 14:33N 59°56' E 029°46'3 3.3
2016-May-22 13:33N 59°59' E 029°46'19 3.7
2016-May-22 08:30N 60°01' E 029°08'1111.2
2016-May-22 07:33N 59°57' E 028°49'1110.7
2016-May-22 06:33N 59°52' E 028°30'1010.3
2016-May-22 05:33N 59°42' E 028°22'1 0.7
2016-May-22 04:27N 59°42' E 028°21'0 0.0
2016-May-22 03:24N 59°42' E 028°21'0 0.0
2016-May-22 02:30N 59°42' E 028°21'0 0.0
2016-May-22 01:30N 59°42' E 028°21'0 0.0
2016-May-22 00:30N 59°42' E 028°21'0 0.0
2016-May-21 23:30N 59°42' E 028°21'0 0.0
2016-May-21 22:33N 59°42' E 028°21'0 0.0
2016-May-21 21:33N 59°42' E 028°21'0 0.0
2016-May-21 20:33N 59°42' E 028°21'0 0.0
2016-May-21 19:21N 59°42' E 028°21'0 0.0
2016-May-21 18:33N 59°42' E 028°21'0 0.0
2016-May-21 17:33N 59°42' E 028°21'0 0.0
2016-May-21 16:24N 59°42' E 028°21'2 2.2
2016-May-21 15:33N 59°43' E 028°23'1110.6
2016-May-21 14:33N 59°53' E 028°30'4 3.4
2016-May-21 13:31N 59°54' E 028°36'0 0.1
2016-May-21 12:31N 59°54' E 028°36'7 7.7
2016-May-21 11:33N 59°57' E 028°50'2410.9
2016-May-21 09:23N 60°00' E 029°37'7 7.8
2016-May-21 08:32N 59°56' E 029°46'0 0.0
2016-May-21 07:33N 59°56' E 029°46'0 0.0
2016-May-21 06:32N 59°56' E 029°46'0 0.0
2016-May-21 05:27N 59°56' E 029°46'0 0.0
2016-May-21 02:31N 59°56' E 029°46'0 0.0
2016-May-21 01:33N 59°56' E 029°46'0 0.0
2016-May-21 00:33N 59°56' E 029°46'0 0.0
2016-May-20 23:33N 59°56' E 029°46'0 0.0
2016-May-20 22:32N 59°56' E 029°46'0 0.0
2016-May-20 21:33N 59°56' E 029°46'0 0.0
2016-May-20 20:33N 59°56' E 029°46'7 6.9
2016-May-20 19:33N 59°55' E 030°00'7 7.1
2016-May-20 18:33N 59°53' E 030°14'0 0.0
2016-May-20 17:33N 59°53' E 030°14'0 0.0
2016-May-20 16:33N 59°53' E 030°14'0 0.1
2016-May-20 15:33N 59°53' E 030°13'0 0.0
2016-May-20 14:33N 59°53' E 030°13'0 0.0
2016-May-20 13:33N 59°53' E 030°13'1 0.9
2016-May-20 12:33N 59°52' E 030°12'0 0.0
2016-May-20 11:33N 59°52' E 030°12'0 0.0
2016-May-20 10:33N 59°52' E 030°12'0 0.0
2016-May-20 09:32N 59°52' E 030°12'0 0.0
2016-May-20 08:33N 59°52' E 030°12'0 0.0
2016-May-20 07:33N 59°52' E 030°12'1 1.0
2016-May-20 06:33N 59°53' E 030°13'0 0.3
2016-May-20 05:33N 59°53' E 030°13'0 0.0
2016-May-20 04:33N 59°53' E 030°13'0 0.0
2016-May-20 03:33N 59°53' E 030°13'0 0.0
2016-May-20 02:33N 59°53' E 030°13'0 0.0
2016-May-20 01:32N 59°53' E 030°13'0 0.0
2016-May-20 00:33N 59°53' E 030°13'0 0.0
2016-May-19 23:33N 59°53' E 030°13'0 0.0
2016-May-19 22:33N 59°53' E 030°13'0 0.0
2016-May-19 21:33N 59°53' E 030°13'0 0.0
2016-May-19 20:33N 59°53' E 030°13'0 0.0
2016-May-19 19:33N 59°53' E 030°13'0 0.0
2016-May-19 18:33N 59°53' E 030°13'0 0.0
2016-May-19 17:33N 59°53' E 030°13'0 0.0
2016-May-19 16:33N 59°53' E 030°13'0 0.0
2016-May-19 15:33N 59°53' E 030°13'0 0.0
2016-May-19 14:33N 59°53' E 030°13'0 0.0
2016-May-19 13:33N 59°53' E 030°13'0 0.1
2016-May-19 12:33N 59°53' E 030°14'0 0.0
2016-May-19 11:32N 59°53' E 030°14'0 0.0
2016-May-19 10:33N 59°53' E 030°14'0 0.0
2016-May-19 09:33N 59°53' E 030°14'0 0.0
2016-May-19 08:33N 59°53' E 030°14'0 0.1
2016-May-19 07:33N 59°53' E 030°13'0 0.0
2016-May-19 06:33N 59°53' E 030°13'0 0.0
2016-May-19 05:33N 59°53' E 030°13'0 0.0
2016-May-19 04:33N 59°53' E 030°13'0 0.0
2016-May-19 03:33N 59°53' E 030°13'7 6.8
2016-May-19 02:33N 59°55' E 030°01'1110.9
2016-May-19 01:32N 59°60' E 029°40'9 2.8
2016-May-18 22:22N 60°01' E 029°23'0 0.0
2016-May-18 21:28N 60°01' E 029°23'11 8.6
2016-May-18 20:12N 60°09' E 029°07'1011.7
2016-May-18 19:18N 60°15' E 028°50'6 5.8
2016-May-18 18:20N 60°19' E 028°44'0 0.0
2016-May-18 10:24N 60°19' E 028°44'0 0.0
2016-May-18 09:12N 60°19' E 028°44'0 0.0
2016-May-18 08:30N 60°19' E 028°44'0 0.0
2016-May-18 07:30N 60°19' E 028°44'0 0.0
2016-May-18 06:30N 60°19' E 028°44'0 0.0
2016-May-18 04:18N 60°19' E 028°44'0 0.0
2016-May-18 03:30N 60°19' E 028°44'0 0.0
2016-May-18 02:33N 60°19' E 028°44'1 0.3
2016-May-17 23:15N 60°18' E 028°45'0 0.0
2016-May-17 22:03N 60°18' E 028°45'0 0.0
2016-May-17 21:33N 60°18' E 028°45'0 0.0
2016-May-17 10:20N 60°18' E 028°45'0 0.0
2016-May-17 07:18N 60°18' E 028°45'2 2.3
2016-May-17 06:29N 60°20' E 028°43'0 0.0
2016-May-17 04:26N 60°20' E 028°43'0 0.0
2016-May-17 03:29N 60°20' E 028°43'0 0.0
2016-May-17 02:29N 60°20' E 028°43'0 0.0
2016-May-17 01:32N 60°20' E 028°43'0 0.0
2016-May-17 00:32N 60°20' E 028°43'0 0.0
2016-May-16 23:32N 60°20' E 028°43'0 0.0
2016-May-16 21:32N 60°20' E 028°43'2 0.1
2016-May-16 04:26N 60°18' E 028°45'0 0.0
2016-May-16 02:14N 60°18' E 028°45'0 0.0
2016-May-16 01:20N 60°18' E 028°45'28 4.6
2016-May-15 19:07N 60°01' E 029°30'611.4
2016-May-15 18:33N 59°59' E 029°43'1111.3
2016-May-15 17:33N 59°55' E 030°03'5 5.3
2016-May-15 16:32N 59°53' E 030°14'0 0.0
2016-May-15 15:33N 59°53' E 030°14'0 0.0
2016-May-15 14:33N 59°53' E 030°14'0 0.0
2016-May-15 13:34N 59°53' E 030°14'0 0.0
2016-May-15 12:34N 59°53' E 030°14'0 0.0
2016-May-15 11:33N 59°53' E 030°14'0 0.0
2016-May-15 10:33N 59°53' E 030°14'0 0.0
2016-May-15 09:34N 59°53' E 030°14'0 0.0
2016-May-15 08:33N 59°53' E 030°14'0 0.0
2016-May-15 07:33N 59°53' E 030°14'3 3.4
2016-May-15 06:32N 59°54' E 030°07'1110.8
2016-May-15 05:33N 59°58' E 029°47'2 2.1
2016-May-15 04:31N 59°56' E 029°46'0 0.0
2016-May-15 03:32N 59°56' E 029°46'0 0.0
2016-May-15 02:32N 59°56' E 029°46'0 0.0
2016-May-15 01:33N 59°56' E 029°46'0 0.0
2016-May-15 00:33N 59°56' E 029°46'0 0.0
2016-May-14 23:32N 59°56' E 029°46'0 0.0
2016-May-14 22:32N 59°56' E 029°46'  

Dump ship's entire track history